Time;durP1;ratioP1;P1;durP2;ratioP2;P2;SDS_P1;SDS_P2;PMS_P1;PMS_P2;Temp;Humidity;BMP_temperature;BMP_pressure;BME280_temperature;BME280_humidity;BME280_pressure;Samples;Min_cycle;Max_cycle;Signal;HPM_P1;HPM_P2
2023/09/14 00:00:44;;;;;;;1.13;0.90;;;24.40;60.30;;;;;;4934038;28;87780;-86
2023/09/14 00:03:10;;;;;;;1.13;1.02;;;24.30;60.20;;;;;;4929132;28;87634;-86
2023/09/14 00:05:43;;;;;;;0.98;0.98;;;24.30;60.30;;;;;;4928643;28;89015;-86
2023/09/14 00:08:10;;;;;;;1.98;1.13;;;24.30;60.40;;;;;;4931260;28;88918;-85
2023/09/14 00:10:36;;;;;;;1.70;0.90;;;24.30;60.20;;;;;;4934009;28;87466;-86
2023/09/14 00:13:03;;;;;;;2.42;1.08;;;24.30;60.30;;;;;;4935321;28;88128;-88
2023/09/14 00:15:29;;;;;;;2.35;1.20;;;24.30;60.20;;;;;;4930214;28;89609;-86
2023/09/14 00:17:55;;;;;;;4.15;1.27;;;24.30;60.20;;;;;;4928921;28;88126;-86
2023/09/14 00:20:26;;;;;;;2.17;1.13;;;24.30;60.40;;;;;;4932985;28;86969;-86
2023/09/14 00:22:53;;;;;;;1.30;0.95;;;24.30;60.20;;;;;;4933384;28;87675;-86
2023/09/14 00:25:19;;;;;;;1.65;1.02;;;24.30;60.40;;;;;;4929067;28;88891;-86
2023/09/14 00:27:46;;;;;;;1.45;0.90;;;24.30;60.50;;;;;;4914706;28;90544;-85
2023/09/14 00:30:12;;;;;;;1.75;1.20;;;24.30;60.40;;;;;;4913592;28;88474;-86
2023/09/14 00:32:42;;;;;;;1.08;1.00;;;24.30;60.20;;;;;;4933727;28;87798;-86
2023/09/14 00:35:12;;;;;;;1.30;1.10;;;24.30;60.30;;;;;;4930316;28;88567;-86
2023/09/14 00:37:38;;;;;;;1.95;1.25;;;24.30;60.30;;;;;;4912778;28;89545;-86
2023/09/14 00:40:09;;;;;;;1.67;1.10;;;24.30;60.50;;;;;;4930691;28;87298;-86
2023/09/14 00:42:43;;;;;;;1.35;0.80;;;24.30;60.50;;;;;;4934599;28;87817;-86
2023/09/14 00:45:14;;;;;;;1.15;1.05;;;24.30;60.60;;;;;;4913606;28;89936;-86
2023/09/14 00:47:44;;;;;;;1.55;1.13;;;24.30;60.60;;;;;;4925554;28;89148;-86
2023/09/14 00:50:10;;;;;;;0.98;0.93;;;24.30;60.60;;;;;;4930855;28;88481;-86
2023/09/14 00:52:37;;;;;;;1.10;1.00;;;24.30;60.60;;;;;;4931863;28;87786;-86
2023/09/14 00:55:08;;;;;;;1.40;1.08;;;24.30;60.70;;;;;;4929818;28;88112;-86
2023/09/14 00:57:35;;;;;;;3.30;1.05;;;24.20;60.50;;;;;;4926046;28;89228;-86
2023/09/14 01:00:11;;;;;;;2.05;0.90;;;24.20;60.60;;;;;;4913791;28;87508;-86
2023/09/14 01:02:40;;;;;;;2.28;1.20;;;24.20;60.50;;;;;;4931468;28;87662;-86
2023/09/14 01:05:07;;;;;;;1.38;1.08;;;24.20;60.80;;;;;;4913616;28;89618;-86
2023/09/14 01:07:36;;;;;;;1.98;0.93;;;24.20;60.60;;;;;;4932511;28;88359;-86
2023/09/14 01:10:04;;;;;;;0.80;0.77;;;24.20;60.60;;;;;;4933361;28;87019;-86
2023/09/14 01:12:30;;;;;;;1.00;0.90;;;24.20;60.70;;;;;;4932951;28;86837;-86
2023/09/14 01:15:24;;;;;;;1.02;0.93;;;24.20;60.60;;;;;;4929531;28;88091;-86
2023/09/14 01:18:07;;;;;;;1.55;0.95;;;24.20;60.70;;;;;;4929175;28;87699;-86
2023/09/14 01:21:05;;;;;;;1.58;0.98;;;24.20;60.80;;;;;;4928233;28;88861;-86
2023/09/14 01:23:43;;;;;;;1.80;0.90;;;24.20;60.70;;;;;;4930863;28;88290;-86
2023/09/14 01:26:09;;;;;;;0.80;0.73;;;24.20;60.70;;;;;;4928059;28;87820;-86
2023/09/14 01:28:35;;;;;;;1.30;1.10;;;24.20;60.70;;;;;;4932923;28;88001;-86
2023/09/14 01:31:01;;;;;;;1.10;0.98;;;24.20;60.70;;;;;;4918999;28;88398;-86
2023/09/14 01:33:29;;;;;;;0.88;0.80;;;24.20;60.60;;;;;;4916001;28;89009;-86
2023/09/14 01:36:31;;;;;;;1.02;0.85;;;24.20;60.60;;;;;;4911909;28;90713;-86
2023/09/14 01:38:58;;;;;;;1.10;1.00;;;24.20;60.90;;;;;;4934240;28;88428;-86
2023/09/14 01:41:25;;;;;;;1.35;0.95;;;24.10;60.60;;;;;;4914833;28;88088;-86
2023/09/14 01:43:53;;;;;;;1.15;0.95;;;24.10;60.70;;;;;;4933000;28;87762;-86
2023/09/14 01:46:19;;;;;;;1.00;0.85;;;24.10;60.80;;;;;;4933333;28;89295;-86
2023/09/14 01:48:45;;;;;;;1.38;1.13;;;24.10;61.00;;;;;;4933014;28;88720;-86
2023/09/14 01:51:11;;;;;;;1.13;1.02;;;24.10;60.80;;;;;;4934125;28;87341;-86
2023/09/14 01:53:37;;;;;;;1.00;0.90;;;24.10;60.90;;;;;;4932821;28;87800;-86
2023/09/14 01:56:03;;;;;;;0.82;0.75;;;24.10;60.90;;;;;;4911824;28;90676;-86
2023/09/14 01:58:29;;;;;;;1.00;0.90;;;24.10;60.90;;;;;;4933657;28;87545;-86
2023/09/14 02:00:56;;;;;;;0.73;0.73;;;24.10;60.90;;;;;;4915941;28;87684;-86
2023/09/14 02:03:22;;;;;;;1.55;1.10;;;24.10;60.70;;;;;;4933099;28;87431;-86
2023/09/14 02:05:58;;;;;;;0.85;0.70;;;24.10;60.80;;;;;;4932037;28;87951;-86
2023/09/14 02:08:25;;;;;;;1.65;1.00;;;24.10;60.60;;;;;;4916984;28;90463;-86
2023/09/14 02:10:51;;;;;;;1.10;1.00;;;24.00;60.80;;;;;;4932029;28;88247;-86
2023/09/14 02:13:17;;;;;;;2.00;1.05;;;24.10;60.80;;;;;;4932500;28;87907;-86
2023/09/14 02:15:43;;;;;;;1.73;1.00;;;24.00;60.70;;;;;;4915291;28;90997;-86
2023/09/14 02:18:08;;;;;;;1.10;0.90;;;24.00;60.70;;;;;;4914158;28;94308;-86
2023/09/14 02:20:38;;;;;;;1.67;0.98;;;24.00;60.80;;;;;;4919859;28;87726;-86
2023/09/14 02:23:05;;;;;;;1.52;0.93;;;24.00;60.70;;;;;;4932142;28;87593;-86
2023/09/14 02:25:30;;;;;;;1.58;0.88;;;24.00;61.50;;;;;;4910402;28;95223;-86
2023/09/14 02:27:56;;;;;;;1.42;0.98;;;24.10;60.60;;;;;;4910426;28;95576;-86
2023/09/14 02:30:21;;;;;;;1.20;0.93;;;24.00;60.40;;;;;;4912671;28;93481;-86
2023/09/14 02:32:47;;;;;;;1.63;0.90;;;24.00;60.60;;;;;;4927037;28;93012;-87
2023/09/14 02:35:13;;;;;;;1.02;0.90;;;24.00;60.80;;;;;;4911058;28;96351;-86
2023/09/14 02:37:38;;;;;;;1.33;0.93;;;24.00;60.60;;;;;;4912744;28;95873;-86
2023/09/14 02:40:07;;;;;;;1.13;0.80;;;24.00;60.60;;;;;;4911495;28;91992;-86
2023/09/14 02:42:37;;;;;;;1.42;0.90;;;24.00;61.00;;;;;;4911061;28;92934;-87
2023/09/14 02:45:04;;;;;;;1.33;0.90;;;24.00;60.70;;;;;;4929659;28;93675;-86
2023/09/14 02:47:29;;;;;;;0.70;0.70;;;24.00;60.50;;;;;;4930366;28;93203;-86
2023/09/14 02:49:55;;;;;;;0.80;0.80;;;24.00;60.60;;;;;;4928632;28;92134;-87
2023/09/14 02:52:20;;;;;;;1.55;0.70;;;24.00;60.40;;;;;;4930897;28;92081;-86
2023/09/14 02:54:46;;;;;;;1.38;1.25;;;24.00;60.40;;;;;;4914387;28;96049;-86
2023/09/14 02:57:12;;;;;;;1.30;0.70;;;24.00;60.50;;;;;;4928792;28;93170;-86
2023/09/14 02:59:37;;;;;;;1.38;1.00;;;24.00;60.60;;;;;;4929354;28;94038;-86
2023/09/14 03:02:03;;;;;;;1.65;1.00;;;24.00;60.70;;;;;;4925891;28;92927;-86
2023/09/14 03:04:29;;;;;;;1.65;0.90;;;24.00;60.50;;;;;;4933889;28;92938;-86
2023/09/14 03:06:56;;;;;;;1.98;1.00;;;24.00;60.80;;;;;;4929861;28;93276;-86
2023/09/14 03:09:22;;;;;;;1.00;0.80;;;24.00;60.60;;;;;;4933075;28;92837;-86
2023/09/14 03:11:47;;;;;;;2.42;1.17;;;24.00;60.60;;;;;;4925102;28;92385;-86
2023/09/14 03:14:13;;;;;;;1.67;1.00;;;24.00;60.40;;;;;;4931816;28;94101;-86
2023/09/14 03:16:39;;;;;;;1.48;1.00;;;24.00;61.30;;;;;;4927973;28;93393;-87
2023/09/14 03:19:04;;;;;;;0.93;0.82;;;24.00;60.30;;;;;;4911879;28;92020;-86
2023/09/14 03:21:30;;;;;;;0.90;0.73;;;24.00;60.30;;;;;;4912947;28;93458;-86
2023/09/14 03:23:56;;;;;;;1.48;1.15;;;24.00;60.40;;;;;;4928026;28;93500;-86
2023/09/14 03:26:23;;;;;;;1.00;0.90;;;24.00;60.60;;;;;;4913996;28;96269;-87
2023/09/14 03:28:50;;;;;;;1.00;0.82;;;24.00;60.40;;;;;;4924514;28;92626;-86
2023/09/14 03:31:16;;;;;;;1.20;1.00;;;24.00;60.40;;;;;;4928646;28;92730;-86
2023/09/14 03:33:45;;;;;;;1.58;0.98;;;24.00;60.30;;;;;;4909638;28;95847;-86
2023/09/14 03:36:11;;;;;;;0.80;0.80;;;24.00;60.40;;;;;;4930273;28;92771;-86
2023/09/14 03:38:37;;;;;;;1.25;0.95;;;23.90;60.50;;;;;;4928681;28;92703;-86
2023/09/14 03:41:03;;;;;;;1.05;0.90;;;23.90;60.30;;;;;;4925431;28;92209;-86
2023/09/14 03:43:28;;;;;;;3.33;1.17;;;24.00;60.40;;;;;;4907345;28;96354;-86
2023/09/14 03:45:56;;;;;;;1.10;0.90;;;24.00;60.40;;;;;;4924412;28;94079;-85
2023/09/14 03:48:21;;;;;;;1.42;0.98;;;24.00;60.40;;;;;;4906224;28;93476;-86
2023/09/14 03:50:47;;;;;;;0.70;0.70;;;23.90;60.40;;;;;;4926868;28;92977;-86
2023/09/14 03:53:12;;;;;;;1.00;0.80;;;24.00;60.50;;;;;;4931709;28;92836;-86
2023/09/14 03:55:38;;;;;;;1.10;1.00;;;23.90;60.40;;;;;;4926255;28;93823;-86
2023/09/14 03:58:04;;;;;;;0.80;0.80;;;23.90;60.40;;;;;;4927874;28;92375;-86
2023/09/14 04:00:30;;;;;;;1.33;1.02;;;23.90;60.30;;;;;;4931933;28;92530;-86
2023/09/14 04:02:55;;;;;;;0.98;0.85;;;24.00;60.40;;;;;;4928077;28;94375;-86
2023/09/14 04:05:21;;;;;;;0.80;0.75;;;23.90;60.10;;;;;;4929992;28;92633;-85
2023/09/14 04:07:47;;;;;;;1.00;0.90;;;23.90;60.30;;;;;;4927016;28;92421;-87
2023/09/14 04:10:13;;;;;;;1.00;0.90;;;23.90;60.50;;;;;;4930269;28;93096;-86
2023/09/14 04:12:43;;;;;;;1.00;0.90;;;23.90;60.40;;;;;;4929247;28;94087;-86
2023/09/14 04:15:09;;;;;;;1.08;0.77;;;23.90;60.40;;;;;;4925819;28;93393;-86
2023/09/14 04:17:35;;;;;;;1.25;0.70;;;23.90;60.40;;;;;;4909599;28;92301;-86
2023/09/14 04:20:09;;;;;;;1.25;0.80;;;23.90;60.50;;;;;;4925838;28;92475;-86
2023/09/14 04:22:35;;;;;;;2.53;0.80;;;23.90;60.60;;;;;;4926358;28;93760;-86
2023/09/14 04:25:01;;;;;;;1.38;0.90;;;23.90;60.40;;;;;;4927871;28;93291;-86
2023/09/14 04:27:26;;;;;;;1.50;0.90;;;23.90;60.40;;;;;;4912494;28;92313;-86
2023/09/14 04:29:52;;;;;;;1.73;0.95;;;23.90;60.50;;;;;;4931420;28;91870;-87
2023/09/14 04:32:18;;;;;;;1.25;0.63;;;23.90;60.40;;;;;;4910153;28;95918;-86
2023/09/14 04:34:44;;;;;;;2.00;1.20;;;23.90;60.40;;;;;;4926497;28;93492;-86
2023/09/14 04:37:09;;;;;;;1.10;1.00;;;23.90;60.20;;;;;;4926610;28;94059;-86
2023/09/14 04:39:35;;;;;;;1.48;1.00;;;23.90;60.30;;;;;;4909866;28;93346;-86
2023/09/14 04:42:01;;;;;;;1.15;0.90;;;23.90;61.20;;;;;;4910672;28;92744;-86
2023/09/14 04:44:26;;;;;;;1.10;1.00;;;23.90;61.20;;;;;;4926886;28;92944;-86
2023/09/14 04:46:52;;;;;;;1.00;0.77;;;23.90;60.40;;;;;;4915866;28;92627;-86
2023/09/14 04:49:18;;;;;;;0.80;0.70;;;23.90;60.30;;;;;;4923706;28;93086;-86
2023/09/14 04:51:43;;;;;;;0.93;0.85;;;23.90;60.20;;;;;;4928236;28;93693;-86
2023/09/14 04:54:09;;;;;;;1.25;1.10;;;23.80;60.40;;;;;;4928968;28;92861;-86
2023/09/14 04:56:34;;;;;;;1.52;0.95;;;23.80;60.90;;;;;;4928892;28;93172;-86
2023/09/14 04:59:02;;;;;;;1.10;1.00;;;23.80;60.90;;;;;;4930482;28;92830;-86
2023/09/14 05:01:27;;;;;;;3.05;1.00;;;23.80;60.90;;;;;;4930560;28;93411;-86
2023/09/14 05:03:53;;;;;;;1.00;0.90;;;23.80;60.90;;;;;;4934969;28;94875;-86
2023/09/14 05:06:18;;;;;;;1.85;1.05;;;23.90;60.80;;;;;;4914852;28;93262;-86
2023/09/14 05:08:44;;;;;;;1.35;1.15;;;23.80;60.90;;;;;;4932503;28;92782;-86
2023/09/14 05:11:10;;;;;;;0.95;0.80;;;23.80;60.90;;;;;;4930204;28;93020;-86
2023/09/14 05:13:35;;;;;;;1.35;1.02;;;23.80;60.70;;;;;;4930488;28;93126;-86
2023/09/14 05:16:01;;;;;;;1.70;1.10;;;23.80;60.90;;;;;;4925329;28;93376;-86
2023/09/14 05:18:26;;;;;;;0.80;0.80;;;23.80;60.70;;;;;;4927221;28;92780;-87
2023/09/14 05:20:52;;;;;;;1.45;0.80;;;23.80;60.70;;;;;;4931609;28;93904;-86
2023/09/14 05:23:18;;;;;;;2.53;1.05;;;23.80;60.50;;;;;;4930698;28;93126;-87
2023/09/14 05:25:45;;;;;;;0.98;0.70;;;23.80;60.80;;;;;;4933433;28;94379;-85
2023/09/14 05:28:11;;;;;;;1.02;0.80;;;23.80;60.50;;;;;;4913437;28;93070;-86
2023/09/14 05:30:38;;;;;;;1.02;0.77;;;23.80;60.70;;;;;;4930795;28;92893;-86
2023/09/14 05:33:04;;;;;;;0.85;0.73;;;23.80;60.80;;;;;;4933299;28;94118;-86
2023/09/14 05:35:30;;;;;;;1.33;0.82;;;23.70;60.70;;;;;;4915252;28;93188;-86
2023/09/14 05:37:55;;;;;;;1.67;0.90;;;23.80;60.60;;;;;;4927458;28;93039;-86
2023/09/14 05:40:21;;;;;;;1.77;1.20;;;23.80;60.50;;;;;;4929842;28;93177;-86
2023/09/14 05:42:47;;;;;;;1.35;0.80;;;23.70;60.80;;;;;;4929590;28;95452;-86
2023/09/14 05:45:12;;;;;;;1.00;0.90;;;23.80;60.80;;;;;;4929342;28;92744;-86
2023/09/14 05:47:38;;;;;;;0.93;0.90;;;23.70;60.60;;;;;;4930933;28;91958;-86
2023/09/14 05:50:12;;;;;;;3.80;0.90;;;23.70;60.70;;;;;;4921372;28;94327;-95
2023/09/14 05:52:43;;;;;;;3.03;1.73;;;23.80;59.20;;;;;;4917319;28;95934;-94
2023/09/14 05:55:09;;;;;;;3.83;1.85;;;23.90;56.30;;;;;;4921192;28;92456;-94
2023/09/14 05:57:34;;;;;;;4.65;1.40;;;23.90;53.70;;;;;;4917495;28;92674;-94
2023/09/14 06:00:12;;;;;;;3.53;1.83;;;23.70;52.70;;;;;;4902605;28;94523;-95
2023/09/14 06:02:48;;;;;;;3.40;1.70;;;23.70;52.30;;;;;;4903103;28;95591;-94
2023/09/14 06:05:26;;;;;;;9.20;2.10;;;23.60;52.10;;;;;;4918475;28;92230;-94
2023/09/14 06:07:54;;;;;;;3.85;1.50;;;23.60;52.20;;;;;;4907932;28;92049;-95
2023/09/14 06:10:27;;;;;;;4.53;1.67;;;23.60;51.70;;;;;;4904226;28;94207;-92
2023/09/14 06:12:52;;;;;;;5.18;2.15;;;23.60;51.40;;;;;;4930845;28;93119;-93
2023/09/14 06:15:18;;;;;;;6.82;1.70;;;23.50;51.40;;;;;;4920731;28;94070;-92
2023/09/14 06:17:45;;;;;;;4.90;1.73;;;23.50;51.30;;;;;;4922925;28;92674;-92
2023/09/14 06:20:12;;;;;;;4.57;1.90;;;23.50;51.20;;;;;;4937466;28;94244;-92
2023/09/14 06:22:39;;;;;;;3.95;1.60;;;23.50;50.00;;;;;;4930198;28;95528;-92
2023/09/14 06:25:11;;;;;;;3.50;1.50;;;23.30;49.60;;;;;;4928510;28;92435;-94
2023/09/14 06:27:37;;;;;;;4.13;1.60;;;23.30;49.90;;;;;;4943960;28;92884;-91
2023/09/14 06:30:04;;;;;;;4.68;1.90;;;23.30;49.90;;;;;;4928256;28;95757;-94
2023/09/14 06:32:33;;;;;;;4.30;1.45;;;23.40;51.00;;;;;;4941092;28;94458;-94
2023/09/14 06:34:59;;;;;;;5.00;1.20;;;23.40;50.30;;;;;;4929153;28;92742;-93
2023/09/14 06:37:24;;;;;;;2.55;1.40;;;23.40;50.40;;;;;;4949320;28;92781;-94
2023/09/14 06:39:50;;;;;;;2.88;1.25;;;23.40;50.20;;;;;;4928668;28;95929;-94
2023/09/14 06:42:15;;;;;;;3.90;1.20;;;23.40;50.40;;;;;;4928563;28;95553;-93
2023/09/14 06:44:41;;;;;;;2.65;1.33;;;23.40;50.40;;;;;;4931400;28;92397;-93
2023/09/14 06:47:07;;;;;;;6.13;1.45;;;23.40;50.60;;;;;;4936532;28;92753;-93
2023/09/14 06:49:32;;;;;;;2.40;1.33;;;23.40;50.50;;;;;;4927351;28;94448;-92
2023/09/14 06:51:58;;;;;;;4.32;1.40;;;23.40;50.50;;;;;;4929974;28;94954;-92
2023/09/14 06:54:27;;;;;;;2.22;1.25;;;23.50;50.90;;;;;;4925157;28;92523;-93
2023/09/14 06:56:53;;;;;;;4.35;1.20;;;23.50;50.80;;;;;;4912254;28;92009;-92
2023/09/14 06:59:18;;;;;;;3.83;1.38;;;23.60;50.90;;;;;;4921816;28;95595;-88
2023/09/14 07:01:47;;;;;;;7.55;2.03;;;23.70;51.30;;;;;;4924217;28;95215;-92
2023/09/14 07:04:13;;;;;;;5.60;1.48;;;23.80;51.40;;;;;;4915211;28;93063;-93
2023/09/14 07:06:39;;;;;;;5.28;1.90;;;23.80;51.60;;;;;;4918483;28;93034;-93
2023/09/14 07:09:06;;;;;;;10.23;2.20;;;23.70;51.90;;;;;;4941025;28;95396;-93
2023/09/14 07:11:32;;;;;;;2.85;1.33;;;23.70;52.10;;;;;;4926889;28;95597;-89
2023/09/14 07:13:58;;;;;;;4.25;1.85;;;23.70;52.20;;;;;;4928320;28;92134;-93
2023/09/14 07:16:24;;;;;;;3.42;1.30;;;23.70;52.40;;;;;;4921143;28;92345;-92
2023/09/14 07:18:49;;;;;;;3.30;1.50;;;23.70;52.70;;;;;;4924012;28;94506;-92
2023/09/14 07:21:15;;;;;;;43.80;8.35;;;23.70;52.70;;;;;;4911188;28;95778;-92
2023/09/14 07:23:41;;;;;;;38.20;7.03;;;23.70;52.90;;;;;;4932958;28;92557;-92
2023/09/14 07:26:07;;;;;;;26.50;6.18;;;23.60;52.60;;;;;;4921977;28;92995;-92
2023/09/14 07:28:33;;;;;;;15.88;4.55;;;23.60;52.60;;;;;;4924048;28;96646;-87
2023/09/14 07:31:04;;;;;;;10.02;3.67;;;23.60;52.60;;;;;;4921002;28;96173;-87
2023/09/14 07:33:30;;;;;;;6.90;3.65;;;23.70;53.20;;;;;;4920504;28;92513;-92
2023/09/14 07:35:56;;;;;;;3.83;3.15;;;23.70;52.60;;;;;;4923019;28;92427;-92
2023/09/14 07:38:21;;;;;;;8.00;3.00;;;23.60;52.70;;;;;;4923456;28;95505;-95
2023/09/14 07:40:48;;;;;;;5.28;2.90;;;23.60;52.80;;;;;;4923247;28;95283;-94
2023/09/14 07:43:14;;;;;;;7.72;3.70;;;23.60;53.20;;;;;;4943513;28;92914;-91
2023/09/14 07:45:41;;;;;;;4.38;3.10;;;23.60;53.30;;;;;;4926922;28;91743;-94
2023/09/14 07:48:07;;;;;;;6.13;3.15;;;23.50;53.30;;;;;;4932697;28;95222;-94
2023/09/14 07:50:39;;;;;;;4.07;2.92;;;23.40;53.60;;;;;;4891877;28;94653;-94
2023/09/14 07:53:10;;;;;;;5.78;3.17;;;23.40;53.90;;;;;;4930620;28;93422;-95
2023/09/14 07:55:37;;;;;;;4.38;2.88;;;23.30;53.80;;;;;;4937842;28;92375;-94
2023/09/14 07:58:08;;;;;;;5.68;3.10;;;23.30;54.20;;;;;;4923341;28;92850;-94
2023/09/14 08:00:35;;;;;;;8.75;3.70;;;23.30;54.50;;;;;;4921767;28;93506;-93
2023/09/14 08:03:01;;;;;;;8.27;3.47;;;23.20;54.60;;;;;;4918642;28;92669;-92
2023/09/14 08:05:28;;;;;;;4.03;3.30;;;23.20;54.60;;;;;;4918160;28;92020;-91
2023/09/14 08:07:54;;;;;;;5.28;3.53;;;23.30;54.90;;;;;;4915844;28;95666;-92
2023/09/14 08:10:20;;;;;;;5.75;3.90;;;23.20;54.80;;;;;;4917730;28;95491;-92
2023/09/14 08:12:46;;;;;;;5.82;3.72;;;23.20;54.70;;;;;;4920162;28;92603;-92
2023/09/14 08:15:12;;;;;;;5.05;3.67;;;23.20;54.70;;;;;;4918550;28;92694;-93
2023/09/14 08:17:38;;;;;;;4.50;3.70;;;23.20;54.70;;;;;;4920127;28;95443;-92
2023/09/14 08:20:04;;;;;;;6.53;3.60;;;23.20;54.80;;;;;;4902536;28;96003;-92
2023/09/14 08:22:30;;;;;;;5.40;3.58;;;23.20;54.90;;;;;;4938338;28;92662;-93
2023/09/14 08:25:00;;;;;;;5.57;3.38;;;23.20;55.30;;;;;;4931105;28;93127;-93
2023/09/14 08:27:28;;;;;;;6.72;3.75;;;23.10;55.50;;;;;;4921949;28;98968;-95
2023/09/14 08:29:54;;;;;;;5.32;3.22;;;23.20;55.70;;;;;;4921862;28;94454;-92
2023/09/14 08:32:21;;;;;;;5.35;3.05;;;23.20;55.80;;;;;;4923438;28;92160;-92
2023/09/14 08:34:47;;;;;;;3.47;3.10;;;23.20;56.00;;;;;;4926521;28;91399;-92
2023/09/14 08:37:18;;;;;;;8.45;4.10;;;23.30;56.30;;;;;;4919585;28;94072;-93
2023/09/14 08:40:19;;;;;;;5.63;3.30;;;23.30;56.30;;;;;;4924986;28;95027;-94
2023/09/14 08:43:28;;;;;;;4.78;3.63;;;23.30;56.50;;;;;;4868781;28;93145;-95
2023/09/14 08:46:15;;;;;;;;;;;;;;;;;;;;;
2023/09/14 08:48:45;;;;;;;8.93;3.95;;;23.40;56.70;;;;;;4940430;28;95194;-91
2023/09/14 08:51:11;;;;;;;5.70;3.83;;;23.40;57.00;;;;;;4931466;28;94635;-92
2023/09/14 08:53:43;;;;;;;10.05;3.88;;;23.50;56.90;;;;;;4923354;28;92917;-94
2023/09/14 08:56:13;;;;;;;11.82;5.85;;;23.50;56.90;;;;;;4923290;28;92487;-93
2023/09/14 08:58:40;;;;;;;14.85;5.38;;;23.50;56.50;;;;;;4920632;28;94458;-95
2023/09/14 09:01:26;;;;;;;8.13;4.18;;;23.70;57.00;;;;;;4919276;28;94750;-93
2023/09/14 09:03:54;;;;;;;5.35;3.28;;;23.60;56.20;;;;;;4915980;28;92455;-95
2023/09/14 09:06:21;;;;;;;4.57;2.97;;;23.60;56.50;;;;;;4930396;28;92704;-92
2023/09/14 09:08:46;;;;;;;9.63;3.50;;;23.70;56.40;;;;;;4934510;28;95275;-92
2023/09/14 09:11:15;;;;;;;6.80;3.88;;;23.70;56.30;;;;;;4922990;28;96415;-93
2023/09/14 09:13:50;;;;;;;9.73;3.30;;;23.70;56.50;;;;;;4905145;28;92092;-91
2023/09/14 09:16:17;;;;;;;5.18;3.20;;;23.70;56.50;;;;;;4921076;28;92483;-91
2023/09/14 09:19:06;;;;;;;7.45;3.90;;;23.70;56.60;;;;;;4922401;28;95473;-93
2023/09/14 09:21:33;;;;;;;6.43;4.28;;;23.80;56.30;;;;;;4917515;28;99389;-94
2023/09/14 09:24:07;;;;;;;9.68;4.20;;;23.80;56.30;;;;;;4940832;28;93392;-91
2023/09/14 09:26:40;;;;;;;7.38;4.05;;;23.80;56.30;;;;;;4930663;28;91277;-90
2023/09/14 09:29:16;;;;;;;4.50;3.45;;;23.80;56.60;;;;;;4922742;28;92692;-90
2023/09/14 09:31:46;;;;;;;5.03;2.90;;;23.80;56.40;;;;;;4923580;28;95421;-93
2023/09/14 09:34:40;;;;;;;5.85;3.08;;;23.90;55.90;;;;;;4919840;28;94267;-92
2023/09/14 09:37:05;;;;;;;4.45;2.90;;;23.90;55.80;;;;;;4925483;28;92992;-92
2023/09/14 09:39:35;;;;;;;5.95;2.85;;;23.90;55.80;;;;;;4923191;28;94419;-90
2023/09/14 09:42:19;;;;;;;6.95;3.47;;;23.90;55.40;;;;;;4917144;28;95033;-94
2023/09/14 09:44:49;;;;;;;6.03;3.60;;;23.80;55.10;;;;;;4940593;28;92829;-92
2023/09/14 09:47:14;;;;;;;6.45;3.10;;;23.90;54.40;;;;;;4922140;28;92398;-92
2023/09/14 09:49:40;;;;;;;4.10;3.03;;;23.90;54.30;;;;;;4934559;28;95490;-92
2023/09/14 09:52:15;;;;;;;4.32;2.72;;;23.90;54.70;;;;;;4924706;28;94793;-94
2023/09/14 09:54:41;;;;;;;5.88;2.65;;;24.00;54.20;;;;;;4930854;28;93001;-87
2023/09/14 09:57:08;;;;;;;6.18;2.80;;;24.00;54.50;;;;;;4936859;28;92666;-93
2023/09/14 09:59:34;;;;;;;4.25;3.70;;;24.00;54.80;;;;;;4921375;28;95440;-91
2023/09/14 10:01:59;;;;;;;4.68;3.17;;;24.00;54.70;;;;;;4923586;28;94927;-89
2023/09/14 10:04:30;;;;;;;6.35;3.53;;;23.90;54.20;;;;;;4942244;28;92197;-89
2023/09/14 10:06:59;;;;;;;6.18;3.88;;;23.90;54.30;;;;;;4935919;28;92912;-94
2023/09/14 10:09:26;;;;;;;;;;;23.80;54.20;;;;;;4876558;28;97983;-89
2023/09/14 10:12:00;;;;;;;5.57;3.33;;;23.80;54.40;;;;;;4938387;28;92216;-94
2023/09/14 10:14:32;;;;;;;5.20;3.17;;;23.80;54.60;;;;;;4907603;28;92273;-95
2023/09/14 10:17:07;;;;;;;8.85;4.00;;;23.90;54.70;;;;;;4934225;28;91508;-93
2023/09/14 10:19:35;;;;;;;5.68;3.65;;;23.80;54.40;;;;;;4922051;28;95636;-93
2023/09/14 10:22:01;;;;;;;4.50;3.35;;;23.90;54.30;;;;;;4923446;28;93971;-91
2023/09/14 10:24:27;;;;;;;7.53;3.72;;;24.00;54.20;;;;;;4923937;28;93439;-94
2023/09/14 10:26:58;;;;;;;7.07;3.22;;;24.00;54.00;;;;;;4924116;28;92971;-96
2023/09/14 10:29:30;;;;;;;17.42;3.45;;;23.90;53.40;;;;;;4932470;28;94936;-93
2023/09/14 10:31:57;;;;;;;8.40;3.40;;;24.00;53.30;;;;;;4936492;28;94132;-96
2023/09/14 10:34:25;;;;;;;7.45;3.25;;;24.00;52.60;;;;;;4938707;28;92027;-96
2023/09/14 10:36:53;;;;;;;6.97;3.07;;;23.90;52.10;;;;;;4914600;28;92661;-95
2023/09/14 10:39:22;;;;;;;8.98;3.45;;;23.80;52.30;;;;;;4930629;28;94189;-94
2023/09/14 10:41:48;;;;;;;10.88;3.05;;;23.80;52.60;;;;;;4922700;28;95257;-91
2023/09/14 10:44:14;;;;;;;5.20;2.78;;;24.00;53.00;;;;;;4938268;28;92710;-90
2023/09/14 10:46:42;;;;;;;5.18;3.05;;;24.00;53.00;;;;;;4921055;28;92391;-91
2023/09/14 10:49:09;;;;;;;5.65;3.03;;;24.00;53.50;;;;;;4931784;28;93703;-89
2023/09/14 10:51:35;;;;;;;4.53;2.28;;;24.10;52.90;;;;;;4940774;28;93431;-89
2023/09/14 10:54:01;;;;;;;6.68;2.90;;;24.00;52.80;;;;;;4940159;28;92805;-91
2023/09/14 10:56:33;;;;;;;4.05;2.40;;;24.00;53.30;;;;;;4922302;28;92564;-90
2023/09/14 10:59:08;;;;;;;4.82;3.03;;;24.10;53.50;;;;;;4939767;28;93711;-92
2023/09/14 11:01:47;;;;;;;4.30;3.13;;;24.00;53.60;;;;;;4922040;28;95683;-91
2023/09/14 11:04:14;;;;;;;5.72;2.33;;;24.00;53.00;;;;;;4939807;28;93217;-93
2023/09/14 11:06:48;;;;;;;6.72;2.30;;;24.00;53.40;;;;;;4920794;28;92392;-91
2023/09/14 11:10:09;;;;;;;;;;;;;;;;;;;;;
2023/09/14 11:12:35;;;;;;;4.38;3.05;;;24.10;57.60;;;;;;4914512;28;97415;-94
2023/09/14 11:15:23;;;;;;;5.63;3.17;;;24.20;59.20;;;;;;4933222;28;94176;-95
2023/09/14 11:17:53;;;;;;;5.40;3.22;;;24.20;58.80;;;;;;4937734;28;93851;-88
2023/09/14 11:20:25;;;;;;;6.90;2.67;;;24.20;60.90;;;;;;4920530;28;95748;-88
2023/09/14 11:22:52;;;;;;;5.82;2.90;;;24.20;56.50;;;;;;4939405;28;92905;-89
2023/09/14 11:25:44;;;;;;;6.60;2.58;;;24.20;54.30;;;;;;4935669;28;92446;-88
2023/09/14 11:28:20;;;;;;;6.95;2.42;;;24.20;55.30;;;;;;4927105;28;92191;-89
2023/09/14 11:30:49;;;;;;;7.93;2.28;;;24.10;55.30;;;;;;4921612;28;95958;-86
2023/09/14 11:33:16;;;;;;;5.15;2.40;;;24.10;56.40;;;;;;4941152;28;93828;-94
2023/09/14 11:35:50;;;;;;;4.18;2.15;;;24.10;56.50;;;;;;4929440;28;93055;-88
2023/09/14 11:38:21;;;;;;;3.88;2.28;;;24.00;55.00;;;;;;4934341;28;93071;-90
2023/09/14 11:40:47;;;;;;;4.00;2.55;;;24.00;54.80;;;;;;4936212;28;94946;-90
2023/09/14 11:43:21;;;;;;;5.30;2.67;;;24.00;53.50;;;;;;4935528;28;96071;-90
2023/09/14 11:45:58;;;;;;;3.85;2.25;;;24.00;53.40;;;;;;4936796;28;92528;-93
2023/09/14 11:48:28;;;;;;;2.83;2.33;;;24.00;53.20;;;;;;4930441;28;93113;-92
2023/09/14 11:50:56;;;;;;;7.28;2.55;;;24.10;52.90;;;;;;4938007;28;93204;-91
2023/09/14 11:53:24;;;;;;;8.75;1.90;;;24.00;52.80;;;;;;4919975;28;95302;-90
2023/09/14 11:55:51;;;;;;;5.30;2.07;;;24.00;52.70;;;;;;4920360;28;92142;-91
2023/09/14 11:58:17;;;;;;;4.15;1.67;;;24.00;52.80;;;;;;4938866;28;92385;-93
2023/09/14 12:00:46;;;;;;;8.60;1.92;;;24.00;52.50;;;;;;4940709;28;93682;-93
2023/09/14 12:03:12;;;;;;;5.13;1.90;;;24.00;52.60;;;;;;4919051;28;94029;-95
2023/09/14 12:05:38;;;;;;;4.72;2.25;;;24.00;52.90;;;;;;4935254;28;93129;-93
2023/09/14 12:08:17;;;;;;;6.63;2.10;;;24.00;54.00;;;;;;4940289;28;92029;-92
2023/09/14 12:10:44;;;;;;;3.95;2.00;;;24.00;55.00;;;;;;4937772;28;92925;-91
2023/09/14 12:13:17;;;;;;;3.10;1.83;;;24.00;54.20;;;;;;4938842;28;93083;-95
2023/09/14 12:15:55;;;;;;;4.18;2.63;;;24.00;54.30;;;;;;4921768;28;92570;-95
2023/09/14 12:18:21;;;;;;;3.40;2.05;;;24.00;54.60;;;;;;4921941;28;93090;-92
2023/09/14 12:20:48;;;;;;;4.03;1.60;;;23.90;53.80;;;;;;4937965;28;93285;-95
2023/09/14 12:23:14;;;;;;;4.15;1.92;;;23.90;54.40;;;;;;4938016;28;91956;-94
2023/09/14 12:25:40;;;;;;;3.15;1.50;;;23.90;53.30;;;;;;4923628;28;92915;-94
2023/09/14 12:28:09;;;;;;;3.25;1.80;;;23.90;52.00;;;;;;4923721;28;92441;-96
2023/09/14 12:30:35;;;;;;;2.90;1.35;;;23.90;51.10;;;;;;4927305;28;96962;-95
2023/09/14 12:33:04;;;;;;;3.10;1.60;;;23.90;51.50;;;;;;4935330;28;96434;-92
2023/09/14 12:35:30;;;;;;;9.00;2.07;;;23.90;52.00;;;;;;4921718;28;92728;-94
2023/09/14 12:38:06;;;;;;;2.45;1.40;;;23.90;51.20;;;;;;4923537;28;92279;-96
2023/09/14 12:40:36;;;;;;;2.20;1.45;;;23.90;50.70;;;;;;4938847;28;93185;-94
2023/09/14 12:43:07;;;;;;;2.88;1.52;;;23.90;51.30;;;;;;4925738;28;92983;-92
2023/09/14 12:45:33;;;;;;;2.30;1.52;;;24.00;50.90;;;;;;4949007;28;92528;-91
2023/09/14 12:48:03;;;;;;;5.47;2.00;;;24.00;51.20;;;;;;4947645;28;91254;-94
2023/09/14 12:50:29;;;;;;;4.85;2.10;;;24.00;51.20;;;;;;4955718;28;93797;-93
2023/09/14 12:52:57;;;;;;;3.05;1.80;;;24.00;51.70;;;;;;4938430;28;93854;-95
2023/09/14 12:55:23;;;;;;;5.32;1.73;;;24.00;51.60;;;;;;4956462;28;92801;-95